Time;durP1;ratioP1;P1;durP2;ratioP2;P2;SDS_P1;SDS_P2;PMS_P1;PMS_P2;Temp;Humidity;BMP_temperature;BMP_pressure;BME280_temperature;BME280_humidity;BME280_pressure;Samples;Min_cycle;Max_cycle;Signal;HPM_P1;HPM_P2
2023/01/13 00:02:21;;;;;;;0.10;0.10;;;;;;;9.69;100.00;99592.94;5050226;28;20229;-83
2023/01/13 00:04:47;;;;;;;0.10;0.10;;;;;;;9.66;100.00;99590.53;5054851;28;20294;-82
2023/01/13 00:07:14;;;;;;;0.10;0.10;;;;;;;9.71;100.00;99591.88;5045068;28;20292;-83
2023/01/13 00:09:40;;;;;;;0.20;0.20;;;;;;;9.68;100.00;99573.47;5050084;28;20206;-83
2023/01/13 00:12:07;;;;;;;0.10;0.10;;;;;;;9.71;100.00;99557.31;5053356;28;20229;-83
2023/01/13 00:14:35;;;;;;;1.37;0.20;;;;;;;9.74;100.00;99557.06;5048162;28;20274;-82
2023/01/13 00:17:02;;;;;;;0.20;0.10;;;;;;;9.69;100.00;99556.56;5046859;28;20210;-83
2023/01/13 00:19:28;;;;;;;0.20;0.20;;;;;;;9.69;100.00;99556.56;5043997;28;20214;-83
2023/01/13 00:21:55;;;;;;;0.20;0.20;;;;;;;9.67;100.00;99555.03;5056938;28;20223;-84
2023/01/13 00:24:22;;;;;;;0.50;0.20;;;;;;;9.66;100.00;99554.16;5052841;28;20216;-82
2023/01/13 00:26:48;;;;;;;0.27;0.23;;;;;;;9.64;100.00;99572.06;5049849;28;20221;-84
2023/01/13 00:29:15;;;;;;;0.20;0.20;;;;;;;9.67;100.00;99569.13;5047617;28;20206;-83
2023/01/13 00:31:43;;;;;;;0.20;0.20;;;;;;;9.72;100.00;99552.84;5045777;28;20245;-82
2023/01/13 00:34:09;;;;;;;0.80;0.30;;;;;;;9.72;100.00;99553.69;5041947;28;20210;-79
2023/01/13 00:36:36;;;;;;;0.20;0.20;;;;;;;9.72;100.00;99551.03;5046221;28;20206;-80
2023/01/13 00:39:03;;;;;;;0.43;0.37;;;;;;;9.75;100.00;99548.13;5045655;28;20222;-83
2023/01/13 00:43:21;;;;;;;0.20;0.20;;;;;;;9.75;100.00;99553.44;5054125;28;20221;-80
2023/01/13 00:44:15;;;;;;;0.57;0.20;;;;;;;9.74;100.00;99545.59;5051530;28;20255;-83
2023/01/13 00:46:43;;;;;;;0.57;0.10;;;;;;;9.80;100.00;99544.28;5050637;28;20206;-83
2023/01/13 00:49:10;;;;;;;0.93;0.20;;;;;;;9.79;100.00;99540.78;5049509;28;20583;-83
2023/01/13 00:51:36;;;;;;;0.67;0.20;;;;;;;9.79;100.00;99540.78;5047533;28;20691;-83
2023/01/13 00:54:03;;;;;;;0.10;0.10;;;;;;;9.78;100.00;99538.22;5050968;28;20659;-83
2023/01/13 00:56:29;;;;;;;0.67;0.17;;;;;;;9.80;100.00;99544.28;5045039;28;20664;-83
2023/01/13 00:58:57;;;;;;;0.10;0.10;;;;;;;9.80;100.00;99542.47;5053523;28;20671;-83
2023/01/13 01:01:25;;;;;;;0.70;0.20;;;;;;;9.87;100.00;99541.00;5043599;28;20222;-81
2023/01/13 01:03:54;;;;;;;0.83;0.20;;;;;;;9.85;100.00;99527.00;5046048;28;20202;-81
2023/01/13 01:06:22;;;;;;;0.20;0.20;;;;;;;9.83;100.00;99534.25;5045950;28;20202;-83
2023/01/13 01:08:49;;;;;;;0.20;0.20;;;;;;;9.81;100.00;99522.88;5046780;28;20229;-82
2023/01/13 01:11:18;;;;;;;0.40;0.23;;;;;;;9.81;100.00;99530.88;5051588;28;20221;-84
2023/01/13 01:13:45;;;;;;;0.50;0.30;;;;;;;9.79;100.00;99524.81;5045330;28;20288;-84
2023/01/13 01:16:14;;;;;;;0.20;0.20;;;;;;;9.81;100.00;99517.56;5042625;28;20203;-84
2023/01/13 01:18:42;;;;;;;0.20;0.17;;;;;;;9.81;100.00;99522.88;5041845;28;20201;-83
2023/01/13 01:21:11;;;;;;;0.17;0.10;;;;;;;9.79;100.00;99519.50;5046084;28;20316;-83
2023/01/13 01:23:39;;;;;;;1.60;0.20;;;;;;;9.80;100.00;99525.66;5046431;28;20212;-83
2023/01/13 01:26:07;;;;;;;0.10;0.10;;;;;;;9.78;100.00;99531.09;5039759;28;20206;-83
2023/01/13 01:28:34;;;;;;;0.37;0.23;;;;;;;9.76;100.00;99546.31;5041227;28;20639;-83
2023/01/13 01:31:05;;;;;;;0.53;0.20;;;;;;;9.79;100.00;99546.09;5044938;28;20237;-82
2023/01/13 01:33:32;;;;;;;1.43;0.37;;;;;;;9.78;100.00;99549.72;5047053;28;20205;-82
2023/01/13 01:36:00;;;;;;;1.13;0.20;;;;;;;9.78;100.00;99546.19;5046056;28;20209;-81
2023/01/13 01:38:28;;;;;;;1.53;0.23;;;;;;;9.79;100.00;99553.22;5047008;28;20206;-82
2023/01/13 01:40:54;;;;;;;0.93;0.20;;;;;;;9.74;100.00;99551.75;5051134;28;20217;-82
2023/01/13 01:46:07;;;;;;;0.27;0.23;;;;;;;9.79;100.00;99538.13;5050306;28;20217;-83
2023/01/13 01:48:38;;;;;;;0.20;0.13;;;;;;;9.74;100.00;99535.81;5041894;28;20712;-83
2023/01/13 01:51:09;;;;;;;0.40;0.10;;;;;;;9.73;100.00;99536.75;5048101;28;20240;-82
2023/01/13 01:53:37;;;;;;;0.30;0.10;;;;;;;9.71;100.00;99541.34;5049851;28;20214;-82
2023/01/13 01:56:03;;;;;;;0.60;0.20;;;;;;;9.73;99.20;99547.41;5046241;28;20667;-83
2023/01/13 01:58:35;;;;;;;0.20;0.20;;;;;;;9.69;97.59;99543.28;5048074;28;20206;-82
2023/01/13 02:01:01;;;;;;;0.50;0.20;;;;;;;9.70;96.21;99549.44;5046212;28;20236;-81
2023/01/13 02:03:29;;;;;;;0.87;0.27;;;;;;;9.69;94.62;99542.44;5047571;28;20288;-84
2023/01/13 02:05:56;;;;;;;1.33;0.27;;;;;;;9.69;93.04;99527.31;5040438;28;20210;-82
2023/01/13 02:08:23;;;;;;;0.83;0.30;;;;;;;9.68;92.46;99548.72;5042202;28;20213;-83
2023/01/13 02:10:53;;;;;;;0.63;0.20;;;;;;;9.63;90.37;99546.44;5041377;28;20290;-83
2023/01/13 02:13:21;;;;;;;1.73;0.40;;;;;;;9.64;90.18;99536.66;5043202;28;20205;-81
2023/01/13 02:15:57;;;;;;;1.70;0.27;;;;;;;9.67;89.37;99539.88;5041950;28;20630;-79
2023/01/13 02:18:37;;;;;;;1.20;0.33;;;;;;;9.66;88.59;99538.22;5040934;28;21595;-82
2023/01/13 02:21:39;;;;;;;0.43;0.30;;;;;;;9.68;88.10;99544.25;5041120;28;20233;-83
2023/01/13 02:27:46;;;;;;;1.07;0.50;;;;;;;9.66;87.25;99538.22;5045707;28;20205;-83
2023/01/13 02:33:18;;;;;;;1.67;0.80;;;;;;;9.65;86.03;99527.72;5043669;28;20846;-81
2023/01/13 02:35:51;;;;;;;2.70;0.77;;;;;;;9.66;86.43;99532.91;5047232;28;20198;-81
2023/01/13 02:38:21;;;;;;;2.03;0.60;;;;;;;9.68;85.85;99533.59;5046378;28;20199;-79
2023/01/13 02:40:55;;;;;;;1.93;0.60;;;;;;;9.71;86.28;99533.38;5051159;28;20239;-81
2023/01/13 02:46:17;;;;;;;1.07;0.40;;;;;;;9.75;86.50;99541.97;5049721;28;20206;-82
2023/01/13 02:48:47;;;;;;;1.03;0.50;;;;;;;9.75;87.18;99549.94;5047694;28;20603;-81
2023/01/13 02:51:17;;;;;;;1.23;0.30;;;;;;;9.74;87.89;99541.13;5051922;28;20221;-81
2023/01/13 02:53:48;;;;;;;2.00;0.40;;;;;;;9.74;88.86;99546.44;5051667;28;20218;-80
2023/01/13 02:56:17;;;;;;;1.37;0.50;;;;;;;9.74;89.25;99535.81;5051115;28;20202;-80
2023/01/13 02:58:45;;;;;;;0.43;0.30;;;;;;;9.74;89.75;99540.28;5051479;28;20202;-81
2023/01/13 03:01:11;;;;;;;2.20;0.33;;;;;;;9.77;90.19;99544.50;5042236;28;20229;-79
2023/01/13 03:03:39;;;;;;;1.13;0.50;;;;;;;9.72;90.00;99539.53;5050363;28;20206;-83
2023/01/13 03:06:21;;;;;;;1.00;0.50;;;;;;;9.67;90.70;99555.84;5046376;28;20214;-83
2023/01/13 03:08:53;;;;;;;2.27;0.63;;;;;;;9.66;90.50;99563.97;5049147;28;20197;-83
2023/01/13 03:11:20;;;;;;;1.30;1.00;;;;;;;9.62;90.95;99563.34;5052264;28;20229;-83
2023/01/13 03:14:04;;;;;;;3.03;1.17;;;;;;;9.60;90.99;99567.06;5049290;28;20215;-83
2023/01/13 03:16:40;;;;;;;3.67;1.30;;;;;;;9.59;90.82;99570.69;5052036;28;20206;-83
2023/01/13 03:19:21;;;;;;;2.33;1.00;;;;;;;9.57;90.69;99562.84;5052103;28;20623;-82
2023/01/13 03:21:53;;;;;;;2.33;1.10;;;;;;;9.57;90.73;99554.88;5053345;28;20214;-84
2023/01/13 03:24:23;;;;;;;3.83;1.40;;;;;;;9.52;90.90;99550.84;5051840;28;20217;-83
2023/01/13 03:26:56;;;;;;;1.43;0.70;;;;;;;9.52;90.11;99557.00;5053072;28;20304;-81
2023/01/13 03:29:27;;;;;;;1.30;0.80;;;;;;;9.48;90.04;99563.56;5047728;28;20206;-80
2023/01/13 03:31:58;;;;;;;2.73;0.97;;;;;;;9.46;90.10;99565.47;5047890;28;20324;-82
2023/01/13 03:34:33;;;;;;;1.27;0.47;;;;;;;9.45;90.22;99560.28;5049652;28;20212;-83
2023/01/13 03:37:05;;;;;;;3.03;0.80;;;;;;;9.46;89.42;99556.66;5047803;28;20251;-81
2023/01/13 03:39:35;;;;;;;1.40;0.70;;;;;;;9.44;90.01;99554.13;5051269;28;20568;-82
2023/01/13 03:42:07;;;;;;;3.10;0.80;;;;;;;9.43;89.32;99573.69;5050843;28;20229;-83
2023/01/13 03:44:36;;;;;;;2.50;0.90;;;;;;;9.43;89.07;99579.00;5046331;28;20271;-83
2023/01/13 03:47:12;;;;;;;2.13;0.90;;;;;;;9.41;88.38;99543.72;5047511;28;20244;-82
2023/01/13 03:49:44;;;;;;;2.63;1.30;;;;;;;9.38;87.98;99550.09;5055071;28;20189;-81
2023/01/13 03:52:16;;;;;;;4.77;1.30;;;;;;;9.36;86.68;99559.16;5052253;28;20237;-82
2023/01/13 03:54:47;;;;;;;3.43;1.20;;;;;;;9.33;85.38;99546.94;5047620;28;20214;-81
2023/01/13 03:57:17;;;;;;;5.37;1.50;;;;;;;9.34;85.81;99558.41;5049119;28;20677;-81
2023/01/13 03:59:50;;;;;;;4.63;1.30;;;;;;;9.33;85.13;99546.09;5038352;28;20677;-81
2023/01/13 04:02:21;;;;;;;3.73;1.27;;;;;;;9.33;83.94;99548.75;5047368;28;20237;-81
2023/01/13 04:04:55;;;;;;;7.90;2.20;;;;;;;9.36;83.91;99551.19;5046580;28;20553;-82
2023/01/13 04:07:36;;;;;;;10.43;2.10;;;;;;;9.36;83.38;99556.50;5047885;28;20212;-81
2023/01/13 04:10:06;;;;;;;5.30;1.50;;;;;;;9.37;83.36;99548.41;5055901;28;20212;-82
2023/01/13 04:15:18;;;;;;;5.33;1.70;;;;;;;9.37;83.32;99542.25;5044480;28;20206;-84
2023/01/13 04:17:45;;;;;;;5.40;1.70;;;;;;;9.36;83.08;99544.06;5048991;28;20236;-83
2023/01/13 04:20:13;;;;;;;3.10;1.20;;;;;;;9.36;83.46;99533.41;5046144;28;20213;-83
2023/01/13 04:22:39;;;;;;;6.13;1.70;;;;;;;9.35;83.29;99537.03;5052027;28;20692;-82
2023/01/13 04:25:07;;;;;;;4.20;1.00;;;;;;;9.35;83.56;99537.03;5048542;28;20221;-83
2023/01/13 04:27:33;;;;;;;4.33;1.17;;;;;;;9.35;83.97;99536.19;5052240;28;20216;-82
2023/01/13 04:30:00;;;;;;;3.37;0.80;;;;;;;9.34;84.03;99534.50;5048384;28;20201;-82
2023/01/13 04:32:26;;;;;;;2.90;0.90;;;;;;;9.34;84.11;99547.78;5049245;28;20239;-82
2023/01/13 04:34:53;;;;;;;3.30;1.10;;;;;;;9.33;84.16;99552.25;5051533;28;20210;-81
2023/01/13 04:37:20;;;;;;;4.43;1.00;;;;;;;9.34;83.73;99542.47;5046997;28;20210;-81
2023/01/13 04:39:47;;;;;;;5.37;1.10;;;;;;;9.34;83.79;99545.13;5048546;28;20205;-81
2023/01/13 04:42:13;;;;;;;7.80;1.50;;;;;;;9.32;84.57;99549.72;5048999;28;20246;-80
2023/01/13 04:44:40;;;;;;;4.03;1.47;;;;;;;9.32;83.94;99553.22;5046291;28;20209;-81
2023/01/13 04:47:06;;;;;;;7.63;1.73;;;;;;;9.31;84.01;99563.97;5048876;28;20206;-82
2023/01/13 04:49:33;;;;;;;3.67;1.50;;;;;;;9.29;83.94;99564.09;5047552;28;20214;-82
2023/01/13 04:52:01;;;;;;;5.50;1.80;;;;;;;9.26;84.19;99556.34;5042696;28;20317;-82
2023/01/13 04:54:28;;;;;;;6.17;2.03;;;;;;;9.24;84.32;99576.88;5048008;28;20660;-83
2023/01/13 04:56:55;;;;;;;10.87;1.87;;;;;;;9.22;83.42;99573.47;5044130;28;20213;-79
2023/01/13 04:59:22;;;;;;;8.80;2.03;;;;;;;9.19;82.11;99568.38;5047491;28;20208;-81
2023/01/13 05:01:48;;;;;;;12.60;2.00;;;;;;;9.14;80.87;99559.06;5044669;28;20229;-81
2023/01/13 05:04:15;;;;;;;8.67;1.80;;;;;;;9.07;80.19;99553.38;5048258;28;20202;-82
2023/01/13 05:06:42;;;;;;;8.83;2.00;;;;;;;9.04;80.23;99554.44;5046268;28;20779;-84
2023/01/13 05:09:10;;;;;;;9.43;2.70;;;;;;;9.03;79.70;99558.06;5046513;28;20290;-83
2023/01/13 05:17:09;;;;;;;8.60;2.13;;;;;;;8.97;79.59;99563.81;5043303;28;20592;-80
2023/01/13 05:19:39;;;;;;;8.63;2.37;;;;;;;8.93;79.03;99559.72;5044714;28;20725;-82
2023/01/13 05:27:36;;;;;;;7.17;1.77;;;;;;;8.94;78.93;99553.44;5061005;28;20200;-79
2023/01/13 05:30:03;;;;;;;7.90;1.60;;;;;;;8.93;79.09;99561.53;5050074;28;20216;-80
2023/01/13 05:32:29;;;;;;;8.27;1.70;;;;;;;8.90;79.06;99565.25;5041260;28;20309;-83
2023/01/13 05:34:56;;;;;;;7.50;2.20;;;;;;;8.88;79.02;99576.94;5047431;28;20242;-80
2023/01/13 05:37:24;;;;;;;7.50;1.97;;;;;;;8.81;78.42;99573.88;5048960;28;20205;-80
2023/01/13 05:45:20;;;;;;;7.10;1.87;;;;;;;8.79;77.18;99548.38;5045279;28;20208;-82
2023/01/13 05:47:47;;;;;;;7.57;1.93;;;;;;;8.80;77.33;99552.75;5048243;28;20201;-82
2023/01/13 05:50:13;;;;;;;8.53;2.20;;;;;;;8.73;77.00;99547.06;5047210;28;20205;-81
2023/01/13 05:52:40;;;;;;;4.23;1.50;;;;;;;8.70;77.11;99547.28;5057681;28;20220;-81
2023/01/13 05:55:07;;;;;;;9.70;2.13;;;;;;;8.69;76.44;99546.44;5038451;28;20210;-80
2023/01/13 05:57:33;;;;;;;10.27;2.20;;;;;;;8.67;76.68;99551.00;5051949;28;20226;-79
2023/01/13 06:00:01;;;;;;;7.83;1.67;;;;;;;8.67;75.92;99558.09;5048382;28;20202;-80
2023/01/13 06:02:28;;;;;;;7.43;1.80;;;;;;;8.63;75.80;99556.63;5038979;28;20837;-81
2023/01/13 06:04:54;;;;;;;3.90;1.57;;;;;;;8.61;75.63;99553.25;5048068;28;20193;-81
2023/01/13 06:07:21;;;;;;;6.83;1.70;;;;;;;8.59;75.94;99552.53;5042321;28;20198;-82
2023/01/13 06:09:47;;;;;;;5.67;2.00;;;;;;;8.59;76.51;99558.69;5044425;28;20208;-81
2023/01/13 06:12:14;;;;;;;6.40;2.00;;;;;;;8.62;76.15;99563.75;5043941;28;20237;-84
2023/01/13 06:14:41;;;;;;;6.10;1.77;;;;;;;8.61;76.76;99563.84;5042946;28;20210;-82
2023/01/13 06:17:10;;;;;;;7.27;2.33;;;;;;;8.59;76.64;99582.56;5039463;28;20727;-84
2023/01/13 06:19:37;;;;;;;8.87;2.10;;;;;;;8.61;76.24;99577.97;5034916;28;20198;-83
2023/01/13 06:22:10;;;;;;;5.30;1.13;;;;;;;8.68;76.52;99570.44;5044098;28;20229;-80
2023/01/13 06:24:36;;;;;;;8.13;1.50;;;;;;;8.62;76.26;99574.34;5036133;28;20214;-83
2023/01/13 06:27:04;;;;;;;6.17;1.87;;;;;;;8.63;76.24;99567.25;5042551;28;20667;-82
2023/01/13 06:29:31;;;;;;;8.73;1.20;;;;;;;8.59;75.68;99560.50;5042870;28;20206;-83
2023/01/13 06:31:58;;;;;;;4.43;1.30;;;;;;;8.58;76.32;99572.06;5047283;28;20242;-82
2023/01/13 06:34:26;;;;;;;5.00;0.93;;;;;;;8.60;76.21;99556.84;5045982;28;20228;-81
2023/01/13 06:36:55;;;;;;;4.63;1.23;;;;;;;8.60;75.02;99568.31;5044759;28;20874;-82
2023/01/13 06:39:24;;;;;;;6.53;1.63;;;;;;;8.57;75.26;99576.53;5036504;28;20207;-82
2023/01/13 06:44:37;;;;;;;7.30;1.40;;;;;;;8.57;74.96;99573.03;5048593;28;20204;-81
2023/01/13 06:47:04;;;;;;;4.40;1.50;;;;;;;8.58;75.14;99572.06;5046767;28;20229;-82
2023/01/13 06:49:32;;;;;;;6.03;1.13;;;;;;;8.58;74.96;99574.72;5047261;28;20218;-84
2023/01/13 06:51:59;;;;;;;6.37;1.63;;;;;;;8.58;74.78;99566.75;5042856;28;20593;-84
2023/01/13 06:54:25;;;;;;;7.67;1.63;;;;;;;8.61;74.25;99561.19;5050140;28;20226;-83
2023/01/13 06:56:52;;;;;;;5.13;1.50;;;;;;;8.60;74.73;99555.03;5042823;28;20205;-82
2023/01/13 06:59:18;;;;;;;5.03;1.20;;;;;;;8.59;73.34;99557.84;5041846;28;20209;-85
2023/01/13 07:01:45;;;;;;;6.73;1.20;;;;;;;8.60;73.56;99567.47;5045200;28;20225;-84
2023/01/13 07:04:12;;;;;;;6.77;1.40;;;;;;;8.60;73.24;99578.94;5049137;28;20594;-85
2023/01/13 07:06:40;;;;;;;9.87;2.43;;;;;;;8.60;73.29;99583.38;5051851;28;20278;-83
2023/01/13 07:09:06;;;;;;;5.03;1.27;;;;;;;8.59;73.87;99592.34;5043970;28;20210;-84
2023/01/13 07:11:33;;;;;;;5.27;1.30;;;;;;;8.63;73.31;99585.81;5051543;28;20234;-84
2023/01/13 07:16:45;;;;;;;9.53;1.40;;;;;;;8.60;73.32;99599.31;5049813;28;20312;-84
2023/01/13 07:19:11;;;;;;;8.07;1.63;;;;;;;8.59;73.65;99600.31;5046346;28;20202;-85
2023/01/13 07:21:38;;;;;;;9.50;1.50;;;;;;;8.60;72.95;99604.63;5050210;28;20217;-84
2023/01/13 07:24:06;;;;;;;7.67;1.33;;;;;;;8.60;72.88;99600.16;5046402;28;20217;-85
2023/01/13 07:26:32;;;;;;;5.37;1.10;;;;;;;8.58;72.73;99590.63;5037868;28;20198;-85
2023/01/13 07:28:59;;;;;;;6.63;1.30;;;;;;;8.57;72.83;99594.25;5045129;28;20695;-85
2023/01/13 07:31:26;;;;;;;6.83;1.67;;;;;;;8.56;73.38;99604.00;5050746;28;20599;-85
2023/01/13 07:33:52;;;;;;;6.77;1.57;;;;;;;8.55;73.16;99617.38;5044655;28;20606;-83
2023/01/13 07:36:19;;;;;;;5.07;1.33;;;;;;;8.53;72.75;99620.16;5042545;28;20221;-81
2023/01/13 07:38:45;;;;;;;5.00;1.20;;;;;;;8.52;72.97;99617.59;5044415;28;20213;-84
2023/01/13 07:43:59;;;;;;;6.30;1.40;;;;;;;8.51;72.34;99621.22;5042615;28;20315;-85
2023/01/13 07:46:25;;;;;;;12.00;1.80;;;;;;;8.53;72.18;99627.25;5048405;28;20837;-83
2023/01/13 07:48:52;;;;;;;6.70;1.47;;;;;;;8.49;71.89;99607.19;5043479;28;20202;-85
2023/01/13 07:51:18;;;;;;;7.13;1.57;;;;;;;8.50;71.95;99608.91;5042340;28;20230;-85
2023/01/13 07:53:45;;;;;;;6.10;1.27;;;;;;;8.53;71.69;99612.19;5051302;28;20229;-86
2023/01/13 07:56:13;;;;;;;7.10;1.17;;;;;;;8.51;71.77;99615.91;5046398;28;20209;-84
2023/01/13 07:58:39;;;;;;;4.03;1.03;;;;;;;8.52;72.55;99610.50;5048109;28;20653;-85
2023/01/13 08:01:10;;;;;;;6.10;1.50;;;;;;;8.53;71.73;99608.69;5049777;28;20218;-85
2023/01/13 08:03:37;;;;;;;6.63;1.30;;;;;;;8.56;71.37;99619.94;5046709;28;20202;-84
2023/01/13 08:06:04;;;;;;;6.93;1.70;;;;;;;8.54;71.56;99613.88;5047085;28;20684;-86
2023/01/13 08:08:30;;;;;;;8.43;1.47;;;;;;;8.53;72.29;99608.69;5051182;28;20232;-84
2023/01/13 08:10:59;;;;;;;9.10;1.60;;;;;;;8.51;72.10;99615.91;5054663;28;20204;-84
2023/01/13 08:13:26;;;;;;;5.80;1.17;;;;;;;8.51;71.94;99613.25;5051503;28;20594;-86
2023/01/13 08:15:58;;;;;;;7.17;1.50;;;;;;;8.53;72.09;99619.31;5054752;28;20716;-83
2023/01/13 08:18:25;;;;;;;5.33;1.20;;;;;;;8.57;72.15;99623.44;5048945;28;20208;-85
2023/01/13 08:20:52;;;;;;;7.17;1.97;;;;;;;8.55;72.30;99617.38;5047327;28;20218;-84
2023/01/13 08:23:19;;;;;;;4.07;1.00;;;;;;;8.56;72.46;99627.06;5050890;28;20248;-86
2023/01/13 08:25:46;;;;;;;4.17;1.00;;;;;;;8.56;72.47;99619.09;5055055;28;20201;-85
2023/01/13 08:28:13;;;;;;;7.70;1.53;;;;;;;8.54;72.77;99631.63;5044217;28;20578;-84
2023/01/13 08:30:41;;;;;;;5.83;1.50;;;;;;;8.53;72.79;99622.81;5051519;28;20197;-85
2023/01/13 08:33:08;;;;;;;5.10;1.37;;;;;;;8.51;72.84;99637.97;5050077;28;20225;-85
2023/01/13 08:35:36;;;;;;;6.83;1.23;;;;;;;8.51;72.92;99627.38;5048850;28;20205;-84
2023/01/13 08:38:02;;;;;;;10.63;1.43;;;;;;;8.51;72.70;99637.13;5044100;28;20206;-86
2023/01/13 08:40:29;;;;;;;10.47;2.27;;;;;;;8.51;72.95;99645.94;5044659;28;20198;-84
2023/01/13 08:42:55;;;;;;;5.10;1.37;;;;;;;8.52;72.77;99645.00;5041432;28;20221;-84
2023/01/13 08:45:22;;;;;;;5.93;1.10;;;;;;;8.52;73.57;99652.94;5047044;28;20213;-85
2023/01/13 08:47:49;;;;;;;8.50;1.93;;;;;;;8.54;72.89;99642.22;5054736;28;20206;-85
2023/01/13 08:50:17;;;;;;;7.57;1.30;;;;;;;8.53;73.01;99656.47;5046515;28;20683;-85
2023/01/13 08:52:43;;;;;;;6.93;1.30;;;;;;;8.54;72.66;99642.22;5046493;28;20693;-82
2023/01/13 08:55:10;;;;;;;9.17;1.80;;;;;;;8.50;72.09;99648.72;5052905;28;20205;-84
2023/01/13 08:57:37;;;;;;;4.33;1.20;;;;;;;8.49;71.95;99639.03;5044362;28;20209;-85
2023/01/13 09:00:05;;;;;;;6.53;1.43;;;;;;;8.49;71.43;99644.34;5048452;28;20597;-84
2023/01/13 09:02:32;;;;;;;4.47;1.70;;;;;;;8.46;71.55;99647.22;5038992;28;20301;-86
2023/01/13 09:05:02;;;;;;;6.30;1.47;;;;;;;8.44;71.09;99657.09;5040753;28;20202;-84
2023/01/13 09:07:29;;;;;;;5.03;1.20;;;;;;;8.42;69.81;99640.47;5046629;28;20780;-85
2023/01/13 09:09:56;;;;;;;5.40;1.50;;;;;;;8.43;70.61;99650.09;5044347;28;20211;-85
2023/01/13 09:15:08;;;;;;;5.87;1.40;;;;;;;8.46;68.60;99639.25;5040420;28;20271;-84
2023/01/13 09:17:34;;;;;;;8.17;2.07;;;;;;;8.47;68.51;99636.50;5038476;28;20209;-84
2023/01/13 09:20:02;;;;;;;6.10;1.90;;;;;;;8.48;67.84;99637.34;5041514;28;20205;-84
2023/01/13 09:22:29;;;;;;;5.40;1.43;;;;;;;8.48;68.30;99650.63;5042925;28;20225;-86
2023/01/13 09:24:56;;;;;;;4.23;1.67;;;;;;;8.49;68.46;99644.34;5043421;28;20740;-85
2023/01/13 09:27:22;;;;;;;5.73;1.47;;;;;;;8.49;67.51;99644.34;5042276;28;20202;-84
2023/01/13 09:29:49;;;;;;;5.97;2.13;;;;;;;8.51;68.30;99647.75;5038805;28;20977;-84
2023/01/13 09:32:15;;;;;;;6.83;1.40;;;;;;;8.51;68.23;99642.44;5046601;28;20606;-86
2023/01/13 09:34:59;;;;;;;7.73;1.53;;;;;;;8.55;67.94;99657.19;5044239;28;20218;-85
2023/01/13 09:37:28;;;;;;;5.37;1.40;;;;;;;8.59;68.02;99634.81;5046269;28;20201;-85
2023/01/13 09:39:54;;;;;;;4.70;1.50;;;;;;;8.63;68.03;99655.69;5040664;28;20217;-84
2023/01/13 09:45:18;;;;;;;5.97;1.70;;;;;;;8.68;66.99;99642.09;5044447;28;20217;-81
2023/01/13 09:47:52;;;;;;;4.13;1.57;;;;;;;8.61;67.34;99651.44;5046340;28;20823;-85
2023/01/13 09:50:24;;;;;;;5.43;1.50;;;;;;;8.59;67.36;99650.72;5047838;28;20671;-83
2023/01/13 09:52:52;;;;;;;5.53;1.53;;;;;;;8.57;66.95;99650.84;5047763;28;20232;-83
2023/01/13 09:55:25;;;;;;;8.40;1.43;;;;;;;8.57;67.40;99642.03;5041094;28;20225;-83
2023/01/13 09:57:51;;;;;;;6.17;1.43;;;;;;;8.60;67.02;99647.09;5046428;28;20201;-83
2023/01/13 10:00:22;;;;;;;6.80;2.20;;;;;;;8.59;66.73;99648.06;5049254;28;20209;-83
2023/01/13 10:03:07;;;;;;;5.17;1.30;;;;;;;8.59;66.82;99650.72;5050935;28;20724;-83
2023/01/13 10:05:37;;;;;;;8.80;1.73;;;;;;;8.60;66.78;99641.78;5048037;28;20577;-83
2023/01/13 10:08:13;;;;;;;8.37;1.70;;;;;;;8.59;66.87;99651.56;5046470;28;20205;-83
2023/01/13 10:10:45;;;;;;;6.50;1.40;;;;;;;8.61;67.08;99644.31;5046030;28;20205;-81
2023/01/13 10:13:15;;;;;;;7.57;1.63;;;;;;;8.65;67.09;99647.63;5053996;28;20200;-82
2023/01/13 10:15:50;;;;;;;7.83;2.20;;;;;;;8.67;66.69;99648.34;5045828;28;20197;-82
2023/01/13 10:18:23;;;;;;;5.13;1.40;;;;;;;8.70;66.45;99653.44;5050339;28;20215;-82
2023/01/13 10:21:00;;;;;;;5.17;1.50;;;;;;;8.67;66.77;99648.34;5052395;28;20544;-84
2023/01/13 10:23:45;;;;;;;8.00;2.00;;;;;;;8.66;67.20;99646.66;5047730;28;20563;-84
2023/01/13 10:26:25;;;;;;;7.87;1.63;;;;;;;8.66;67.33;99654.63;5050175;28;20205;-83
2023/01/13 10:28:55;;;;;;;6.67;1.43;;;;;;;8.67;66.47;99657.16;5052043;28;20228;-81
2023/01/13 10:31:22;;;;;;;4.97;1.70;;;;;;;8.69;66.99;99659.72;5042723;28;20229;-84
2023/01/13 10:33:58;;;;;;;3.50;1.20;;;;;;;8.69;66.35;99657.91;5051324;28;20236;-83
2023/01/13 10:36:24;;;;;;;5.20;1.53;;;;;;;8.72;66.52;99667.47;5052911;28;20201;-80
2023/01/13 10:38:52;;;;;;;6.87;1.70;;;;;;;8.72;65.68;99669.28;5055579;28;20205;-82
2023/01/13 10:41:24;;;;;;;6.03;1.30;;;;;;;8.65;65.20;99660.88;5053504;28;20221;-82
2023/01/13 10:44:03;;;;;;;6.30;1.30;;;;;;;8.65;65.55;99669.69;5051723;28;20213;-82
2023/01/13 10:46:31;;;;;;;7.33;1.77;;;;;;;8.69;66.40;99673.00;5043333;28;20445;-82
2023/01/13 10:48:59;;;;;;;8.70;1.90;;;;;;;8.65;65.90;99667.03;5052422;28;20221;-80
2023/01/13 10:51:28;;;;;;;10.13;2.13;;;;;;;8.68;65.33;99676.59;5048504;28;20236;-82
2023/01/13 10:54:03;;;;;;;6.07;1.57;;;;;;;8.72;65.11;99659.50;5055462;28;20228;-84
2023/01/13 10:56:32;;;;;;;3.43;1.27;;;;;;;8.75;65.09;99661.09;5051704;28;20201;-82
2023/01/13 10:59:17;;;;;;;6.53;1.40;;;;;;;8.69;64.27;99679.16;5053098;28;20224;-84
2023/01/13 11:01:56;;;;;;;5.83;1.50;;;;;;;8.65;64.07;99679.47;5041412;28;20228;-81
2023/01/13 11:04:32;;;;;;;5.73;1.83;;;;;;;8.65;63.71;99676.81;5045765;28;20215;-83
2023/01/13 11:07:00;;;;;;;8.27;1.40;;;;;;;8.66;63.97;99689.13;5059532;28;20197;-81
2023/01/13 11:09:30;;;;;;;7.73;1.43;;;;;;;8.70;64.49;99695.91;5044252;28;20201;-82
2023/01/13 11:11:58;;;;;;;6.80;2.00;;;;;;;8.72;63.27;99679.88;5054628;28;20222;-84
2023/01/13 11:14:39;;;;;;;4.50;1.50;;;;;;;8.69;63.77;99681.81;5051820;28;20224;-82
2023/01/13 11:17:14;;;;;;;5.97;1.80;;;;;;;8.70;64.21;99682.66;5047302;28;20210;-81
2023/01/13 11:19:48;;;;;;;4.77;1.50;;;;;;;8.73;64.06;99685.09;5058187;28;20613;-86
2023/01/13 11:22:19;;;;;;;7.70;1.30;;;;;;;8.70;62.81;99691.47;5054729;28;20228;-84
2023/01/13 11:24:52;;;;;;;6.23;1.47;;;;;;;8.69;63.69;99689.75;5059379;28;20228;-82
2023/01/13 11:27:27;;;;;;;6.60;1.87;;;;;;;8.70;63.67;99702.09;5049381;28;20201;-84
2023/01/13 11:30:10;;;;;;;8.60;1.60;;;;;;;8.76;63.84;99699.97;5044872;28;20201;-85
2023/01/13 11:32:43;;;;;;;6.77;1.30;;;;;;;8.77;63.72;99699.00;5050791;28;20245;-83
2023/01/13 11:35:17;;;;;;;7.20;1.63;;;;;;;8.79;64.35;99695.25;5042139;28;20233;-82
2023/01/13 11:37:49;;;;;;;6.77;1.83;;;;;;;8.80;64.48;99706.72;5048437;28;20209;-83
2023/01/13 11:40:25;;;;;;;7.13;2.53;;;;;;;8.82;64.56;99715.44;5047728;28;20287;-81
2023/01/13 11:42:59;;;;;;;8.77;1.80;;;;;;;8.83;64.78;99717.97;5045807;28;20703;-82
2023/01/13 11:45:32;;;;;;;7.30;1.67;;;;;;;8.84;64.60;99711.72;5051820;28;20198;-82
2023/01/13 11:48:01;;;;;;;5.73;2.23;;;;;;;8.85;64.79;99709.91;5049834;28;20204;-83
2023/01/13 11:50:33;;;;;;;5.03;1.80;;;;;;;8.86;64.39;99706.31;5045179;28;20203;-82
2023/01/13 11:53:27;;;;;;;6.87;1.70;;;;;;;8.86;64.88;99701.00;5042939;28;20221;-83
2023/01/13 11:56:06;;;;;;;7.27;1.77;;;;;;;8.85;64.28;99693.97;5049791;28;20229;-85
2023/01/13 11:59:02;;;;;;;11.13;1.90;;;;;;;8.86;64.36;99708.97;5051566;28;20216;-82
2023/01/13 12:01:39;;;;;;;5.47;1.50;;;;;;;8.86;64.94;99708.97;5048825;28;20228;-83
2023/01/13 12:04:23;;;;;;;10.20;1.93;;;;;;;8.86;64.37;99701.00;5050593;28;20212;-84
2023/01/13 12:06:59;;;;;;;12.27;1.80;;;;;;;8.87;64.25;99703.53;5041339;28;20676;-81
2023/01/13 12:09:39;;;;;;;7.93;2.03;;;;;;;8.89;64.85;99700.78;5046962;28;20202;-82
2023/01/13 12:12:21;;;;;;;6.00;1.77;;;;;;;8.92;64.20;99693.44;5049350;28;20229;-83
2023/01/13 12:15:03;;;;;;;5.57;1.50;;;;;;;8.95;64.12;99692.38;5046403;28;20213;-83
2023/01/13 12:17:38;;;;;;;7.40;2.13;;;;;;;8.92;64.01;99698.75;5045099;28;20201;-84
2023/01/13 12:20:21;;;;;;;10.50;2.03;;;;;;;8.96;64.66;99696.72;5045641;28;20232;-85
2023/01/13 12:22:52;;;;;;;8.73;1.73;;;;;;;8.95;64.61;99693.22;5043343;28;20226;-83
2023/01/13 12:25:27;;;;;;;6.90;1.30;;;;;;;9.00;64.26;99693.72;5045975;28;20224;-84
2023/01/13 12:28:00;;;;;;;8.20;2.13;;;;;;;9.00;64.56;99695.53;5044560;28;20209;-83
2023/01/13 12:30:35;;;;;;;7.13;1.33;;;;;;;9.01;64.08;99689.25;5049990;28;21409;-82
2023/01/13 12:33:19;;;;;;;6.47;1.70;;;;;;;9.02;64.00;99704.25;5049982;28;20265;-81
2023/01/13 12:35:54;;;;;;;8.10;1.40;;;;;;;9.06;63.54;99684.47;5051897;28;20224;-82
2023/01/13 12:38:31;;;;;;;6.43;1.87;;;;;;;9.07;63.92;99677.34;5049121;28;20209;-84